sensor_id;sensor_type;location;lat;lon;timestamp;temperature;humidity
39925;DHT22;25592;49.986;11.618;2023-04-25T00:02:39;10.90;96.60
39925;DHT22;25592;49.986;11.618;2023-04-25T00:05:26;11.00;96.70
39925;DHT22;25592;49.986;11.618;2023-04-25T00:08:11;11.00;96.60
39925;DHT22;25592;49.986;11.618;2023-04-25T00:10:57;10.90;96.50
39925;DHT22;25592;49.986;11.618;2023-04-25T00:13:42;11.00;96.50
39925;DHT22;25592;49.986;11.618;2023-04-25T00:16:29;10.90;96.80
39925;DHT22;25592;49.986;11.618;2023-04-25T00:19:16;10.90;96.80
39925;DHT22;25592;49.986;11.618;2023-04-25T00:22:02;11.00;96.70
39925;DHT22;25592;49.986;11.618;2023-04-25T00:24:47;10.70;97.10
39925;DHT22;25592;49.986;11.618;2023-04-25T00:27:33;10.70;97.20
39925;DHT22;25592;49.986;11.618;2023-04-25T00:30:18;10.70;97.00
39925;DHT22;25592;49.986;11.618;2023-04-25T00:33:04;10.70;97.00
39925;DHT22;25592;49.986;11.618;2023-04-25T00:35:49;10.70;96.90
39925;DHT22;25592;49.986;11.618;2023-04-25T00:38:34;10.70;97.10
39925;DHT22;25592;49.986;11.618;2023-04-25T00:41:20;10.70;97.10
39925;DHT22;25592;49.986;11.618;2023-04-25T00:44:05;10.70;96.90
39925;DHT22;25592;49.986;11.618;2023-04-25T00:46:53;10.70;97.00
39925;DHT22;25592;49.986;11.618;2023-04-25T00:49:39;10.70;97.00
39925;DHT22;25592;49.986;11.618;2023-04-25T00:52:24;10.70;96.90
39925;DHT22;25592;49.986;11.618;2023-04-25T00:55:10;10.80;96.90
39925;DHT22;25592;49.986;11.618;2023-04-25T00:57:57;10.80;96.90
39925;DHT22;25592;49.986;11.618;2023-04-25T01:00:42;10.80;97.00
39925;DHT22;25592;49.986;11.618;2023-04-25T01:03:27;10.70;96.70
39925;DHT22;25592;49.986;11.618;2023-04-25T01:06:16;10.70;96.90
39925;DHT22;25592;49.986;11.618;2023-04-25T01:09:02;10.60;97.00
39925;DHT22;25592;49.986;11.618;2023-04-25T01:11:48;10.70;97.00
39925;DHT22;25592;49.986;11.618;2023-04-25T01:14:34;10.60;96.90
39925;DHT22;25592;49.986;11.618;2023-04-25T01:17:20;10.60;97.10
39925;DHT22;25592;49.986;11.618;2023-04-25T01:20:06;10.60;97.10
39925;DHT22;25592;49.986;11.618;2023-04-25T01:22:52;10.60;97.20
39925;DHT22;25592;49.986;11.618;2023-04-25T01:25:38;10.60;97.20
39925;DHT22;25592;49.986;11.618;2023-04-25T01:28:24;10.50;97.20
39925;DHT22;25592;49.986;11.618;2023-04-25T01:31:11;10.50;97.30
39925;DHT22;25592;49.986;11.618;2023-04-25T01:33:56;10.50;97.30
39925;DHT22;25592;49.986;11.618;2023-04-25T01:36:42;10.50;97.30
39925;DHT22;25592;49.986;11.618;2023-04-25T01:39:27;10.60;97.30
39925;DHT22;25592;49.986;11.618;2023-04-25T01:42:13;10.60;97.10
39925;DHT22;25592;49.986;11.618;2023-04-25T01:44:59;10.70;97.00
39925;DHT22;25592;49.986;11.618;2023-04-25T01:47:44;10.60;97.20
39925;DHT22;25592;49.986;11.618;2023-04-25T01:50:34;10.50;97.20
39925;DHT22;25592;49.986;11.618;2023-04-25T01:53:19;10.50;97.20
39925;DHT22;25592;49.986;11.618;2023-04-25T01:56:05;10.50;97.20
39925;DHT22;25592;49.986;11.618;2023-04-25T01:58:51;10.60;97.10
39925;DHT22;25592;49.986;11.618;2023-04-25T02:01:36;10.70;97.20
39925;DHT22;25592;49.986;11.618;2023-04-25T02:04:21;10.60;97.10
39925;DHT22;25592;49.986;11.618;2023-04-25T02:07:07;10.60;97.10
39925;DHT22;25592;49.986;11.618;2023-04-25T02:09:52;10.50;97.20
39925;DHT22;25592;49.986;11.618;2023-04-25T02:12:37;10.60;97.30
39925;DHT22;25592;49.986;11.618;2023-04-25T02:15:23;10.60;97.20
39925;DHT22;25592;49.986;11.618;2023-04-25T02:18:08;10.60;97.30
39925;DHT22;25592;49.986;11.618;2023-04-25T02:20:55;10.60;97.30
39925;DHT22;25592;49.986;11.618;2023-04-25T02:23:41;10.70;97.30
39925;DHT22;25592;49.986;11.618;2023-04-25T02:26:26;10.70;97.20
39925;DHT22;25592;49.986;11.618;2023-04-25T02:29:12;10.60;97.30
39925;DHT22;25592;49.986;11.618;2023-04-25T02:31:57;10.60;97.40
39925;DHT22;25592;49.986;11.618;2023-04-25T02:34:42;10.60;97.40
39925;DHT22;25592;49.986;11.618;2023-04-25T02:37:28;10.50;97.40
39925;DHT22;25592;49.986;11.618;2023-04-25T02:40:13;10.50;97.60
39925;DHT22;25592;49.986;11.618;2023-04-25T02:42:59;10.60;97.60
39925;DHT22;25592;49.986;11.618;2023-04-25T02:45:44;10.60;97.50
39925;DHT22;25592;49.986;11.618;2023-04-25T02:48:30;10.70;97.50
39925;DHT22;25592;49.986;11.618;2023-04-25T02:51:15;10.70;97.40
39925;DHT22;25592;49.986;11.618;2023-04-25T02:54:01;10.60;97.50
39925;DHT22;25592;49.986;11.618;2023-04-25T02:56:47;10.60;97.50
39925;DHT22;25592;49.986;11.618;2023-04-25T02:59:32;10.70;97.40
39925;DHT22;25592;49.986;11.618;2023-04-25T03:02:18;10.70;97.50
39925;DHT22;25592;49.986;11.618;2023-04-25T03:05:03;10.80;97.30
39925;DHT22;25592;49.986;11.618;2023-04-25T03:07:49;10.80;97.20
39925;DHT22;25592;49.986;11.618;2023-04-25T03:10:34;10.70;97.20
39925;DHT22;25592;49.986;11.618;2023-04-25T03:13:20;10.70;97.40
39925;DHT22;25592;49.986;11.618;2023-04-25T03:16:05;10.70;97.50
39925;DHT22;25592;49.986;11.618;2023-04-25T03:18:51;10.60;97.50
39925;DHT22;25592;49.986;11.618;2023-04-25T03:21:36;10.60;97.70
39925;DHT22;25592;49.986;11.618;2023-04-25T03:24:21;10.60;97.90
39925;DHT22;25592;49.986;11.618;2023-04-25T03:27:07;10.40;97.90
39925;DHT22;25592;49.986;11.618;2023-04-25T03:29:52;10.50;98.10
39925;DHT22;25592;49.986;11.618;2023-04-25T03:32:38;10.50;98.10
39925;DHT22;25592;49.986;11.618;2023-04-25T03:35:23;10.60;98.00
39925;DHT22;25592;49.986;11.618;2023-04-25T03:38:10;10.50;98.00
39925;DHT22;25592;49.986;11.618;2023-04-25T03:40:56;10.60;97.80
39925;DHT22;25592;49.986;11.618;2023-04-25T03:43:42;10.60;97.90
39925;DHT22;25592;49.986;11.618;2023-04-25T03:46:27;10.50;97.90
39925;DHT22;25592;49.986;11.618;2023-04-25T03:49:13;10.60;97.90
39925;DHT22;25592;49.986;11.618;2023-04-25T03:52:03;10.60;97.90
39925;DHT22;25592;49.986;11.618;2023-04-25T03:54:48;10.50;98.00
39925;DHT22;25592;49.986;11.618;2023-04-25T03:57:33;10.50;98.00
39925;DHT22;25592;49.986;11.618;2023-04-25T04:00:19;10.50;98.10
39925;DHT22;25592;49.986;11.618;2023-04-25T04:03:04;10.30;98.20
39925;DHT22;25592;49.986;11.618;2023-04-25T04:05:50;10.20;98.50
39925;DHT22;25592;49.986;11.618;2023-04-25T04:08:35;10.20;98.60
39925;DHT22;25592;49.986;11.618;2023-04-25T04:11:21;10.20;98.80
39925;DHT22;25592;49.986;11.618;2023-04-25T04:14:06;10.30;98.80
39925;DHT22;25592;49.986;11.618;2023-04-25T04:16:52;10.20;99.00
39925;DHT22;25592;49.986;11.618;2023-04-25T04:19:37;10.10;99.10
39925;DHT22;25592;49.986;11.618;2023-04-25T04:22:24;10.00;99.00
39925;DHT22;25592;49.986;11.618;2023-04-25T04:25:09;10.10;99.10
39925;DHT22;25592;49.986;11.618;2023-04-25T04:27:56;10.20;99.10
39925;DHT22;25592;49.986;11.618;2023-04-25T04:30:42;10.30;98.90
39925;DHT22;25592;49.986;11.618;2023-04-25T04:33:31;10.30;98.90
39925;DHT22;25592;49.986;11.618;2023-04-25T04:36:16;10.20;98.70
39925;DHT22;25592;49.986;11.618;2023-04-25T04:39:05;10.10;99.10
39925;DHT22;25592;49.986;11.618;2023-04-25T04:41:52;10.10;99.60
39925;DHT22;25592;49.986;11.618;2023-04-25T04:44:38;10.10;99.40
39925;DHT22;25592;49.986;11.618;2023-04-25T04:47:24;10.20;99.60
39925;DHT22;25592;49.986;11.618;2023-04-25T04:50:11;10.20;99.40
39925;DHT22;25592;49.986;11.618;2023-04-25T04:52:56;10.10;99.70
39925;DHT22;25592;49.986;11.618;2023-04-25T04:55:42;10.10;99.80
39925;DHT22;25592;49.986;11.618;2023-04-25T04:58:27;10.10;99.90
39925;DHT22;25592;49.986;11.618;2023-04-25T05:01:14;10.00;99.90
39925;DHT22;25592;49.986;11.618;2023-04-25T05:04:01;10.10;99.90
39925;DHT22;25592;49.986;11.618;2023-04-25T05:06:48;10.10;99.90
39925;DHT22;25592;49.986;11.618;2023-04-25T05:09:33;10.00;99.90
39925;DHT22;25592;49.986;11.618;2023-04-25T05:12:19;9.80;99.90
39925;DHT22;25592;49.986;11.618;2023-04-25T05:15:05;9.90;99.90
39925;DHT22;25592;49.986;11.618;2023-04-25T05:17:50;9.80;99.90
39925;DHT22;25592;49.986;11.618;2023-04-25T05:20:36;9.80;99.90
39925;DHT22;25592;49.986;11.618;2023-04-25T05:23:21;9.70;99.90
39925;DHT22;25592;49.986;11.618;2023-04-25T05:26:06;9.70;99.90
39925;DHT22;25592;49.986;11.618;2023-04-25T05:28:58;9.80;99.90
39925;DHT22;25592;49.986;11.618;2023-04-25T05:31:45;9.90;99.90
39925;DHT22;25592;49.986;11.618;2023-04-25T05:34:30;9.90;99.90
39925;DHT22;25592;49.986;11.618;2023-04-25T05:37:15;10.00;99.90
39925;DHT22;25592;49.986;11.618;2023-04-25T05:40:01;10.10;99.90
39925;DHT22;25592;49.986;11.618;2023-04-25T05:42:49;10.20;99.90
39925;DHT22;25592;49.986;11.618;2023-04-25T05:45:34;10.20;99.90
39925;DHT22;25592;49.986;11.618;2023-04-25T05:48:20;10.00;99.20
39925;DHT22;25592;49.986;11.618;2023-04-25T05:51:05;9.90;99.20
39925;DHT22;25592;49.986;11.618;2023-04-25T05:53:51;9.90;99.10
39925;DHT22;25592;49.986;11.618;2023-04-25T05:56:37;9.80;98.70
39925;DHT22;25592;49.986;11.618;2023-04-25T05:59:22;9.90;99.10
39925;DHT22;25592;49.986;11.618;2023-04-25T06:02:07;9.80;97.90
39925;DHT22;25592;49.986;11.618;2023-04-25T06:04:53;9.80;98.60
39925;DHT22;25592;49.986;11.618;2023-04-25T06:07:39;9.90;98.80
39925;DHT22;25592;49.986;11.618;2023-04-25T06:10:24;10.00;98.70
39925;DHT22;25592;49.986;11.618;2023-04-25T06:13:10;10.00;98.80
39925;DHT22;25592;49.986;11.618;2023-04-25T06:15:55;10.10;98.60
39925;DHT22;25592;49.986;11.618;2023-04-25T06:18:40;10.00;98.50
39925;DHT22;25592;49.986;11.618;2023-04-25T06:21:26;10.10;98.40
39925;DHT22;25592;49.986;11.618;2023-04-25T06:24:12;10.10;98.30
39925;DHT22;25592;49.986;11.618;2023-04-25T06:29:46;10.30;98.20
39925;DHT22;25592;49.986;11.618;2023-04-25T06:32:31;10.30;98.10
39925;DHT22;25592;49.986;11.618;2023-04-25T06:35:17;10.30;97.90
39925;DHT22;25592;49.986;11.618;2023-04-25T06:38:02;10.30;98.20
39925;DHT22;25592;49.986;11.618;2023-04-25T06:40:48;10.20;98.00
39925;DHT22;25592;49.986;11.618;2023-04-25T06:43:33;10.30;98.00
39925;DHT22;25592;49.986;11.618;2023-04-25T06:46:19;10.40;98.00
39925;DHT22;25592;49.986;11.618;2023-04-25T06:49:04;10.40;97.70
39925;DHT22;25592;49.986;11.618;2023-04-25T06:51:50;10.50;97.70
39925;DHT22;25592;49.986;11.618;2023-04-25T06:54:35;10.60;97.60
39925;DHT22;25592;49.986;11.618;2023-04-25T06:57:21;10.60;97.30
39925;DHT22;25592;49.986;11.618;2023-04-25T07:00:06;10.70;97.40
39925;DHT22;25592;49.986;11.618;2023-04-25T07:02:54;10.70;97.50
39925;DHT22;25592;49.986;11.618;2023-04-25T07:05:39;10.80;97.80
39925;DHT22;25592;49.986;11.618;2023-04-25T07:08:24;11.00;97.60
39925;DHT22;25592;49.986;11.618;2023-04-25T07:11:10;11.00;96.90
39925;DHT22;25592;49.986;11.618;2023-04-25T07:13:55;11.10;96.60
39925;DHT22;25592;49.986;11.618;2023-04-25T07:16:41;11.00;96.70
39925;DHT22;25592;49.986;11.618;2023-04-25T07:19:27;11.10;96.80
39925;DHT22;25592;49.986;11.618;2023-04-25T07:22:14;11.20;96.60
39925;DHT22;25592;49.986;11.618;2023-04-25T07:25:00;11.40;97.50
39925;DHT22;25592;49.986;11.618;2023-04-25T07:27:45;11.50;96.40
39925;DHT22;25592;49.986;11.618;2023-04-25T07:30:31;11.50;96.50
39925;DHT22;25592;49.986;11.618;2023-04-25T07:33:17;11.40;96.30
39925;DHT22;25592;49.986;11.618;2023-04-25T07:36:02;11.30;96.60
39925;DHT22;25592;49.986;11.618;2023-04-25T07:38:47;11.30;96.10
39925;DHT22;25592;49.986;11.618;2023-04-25T07:41:33;11.20;96.00
39925;DHT22;25592;49.986;11.618;2023-04-25T07:44:18;11.10;96.20
39925;DHT22;25592;49.986;11.618;2023-04-25T07:47:05;11.10;96.30
39925;DHT22;25592;49.986;11.618;2023-04-25T07:49:52;11.40;96.50
39925;DHT22;25592;49.986;11.618;2023-04-25T07:52:37;11.40;95.70
39925;DHT22;25592;49.986;11.618;2023-04-25T07:55:22;11.30;95.60
39925;DHT22;25592;49.986;11.618;2023-04-25T07:58:10;11.20;96.10
39925;DHT22;25592;49.986;11.618;2023-04-25T08:00:55;11.20;96.30
39925;DHT22;25592;49.986;11.618;2023-04-25T08:03:40;11.20;96.50
39925;DHT22;25592;49.986;11.618;2023-04-25T08:06:26;11.20;96.80
39925;DHT22;25592;49.986;11.618;2023-04-25T08:09:12;11.30;97.00
39925;DHT22;25592;49.986;11.618;2023-04-25T08:11:57;11.30;96.50
39925;DHT22;25592;49.986;11.618;2023-04-25T08:14:43;11.30;96.90
39925;DHT22;25592;49.986;11.618;2023-04-25T08:17:28;11.30;96.20
39925;DHT22;25592;49.986;11.618;2023-04-25T08:20:13;11.30;97.00
39925;DHT22;25592;49.986;11.618;2023-04-25T08:22:59;11.40;96.70
39925;DHT22;25592;49.986;11.618;2023-04-25T08:25:44;11.20;96.60
39925;DHT22;25592;49.986;11.618;2023-04-25T08:28:30;11.20;97.00
39925;DHT22;25592;49.986;11.618;2023-04-25T08:31:15;11.20;96.90
39925;DHT22;25592;49.986;11.618;2023-04-25T08:34:01;11.40;96.40
39925;DHT22;25592;49.986;11.618;2023-04-25T08:36:46;11.50;96.80
39925;DHT22;25592;49.986;11.618;2023-04-25T08:39:32;11.70;96.80
39925;DHT22;25592;49.986;11.618;2023-04-25T08:42:17;11.90;96.90
39925;DHT22;25592;49.986;11.618;2023-04-25T08:45:03;12.30;97.30
39925;DHT22;25592;49.986;11.618;2023-04-25T08:47:52;12.30;96.60
39925;DHT22;25592;49.986;11.618;2023-04-25T08:50:54;12.40;95.80
39925;DHT22;25592;49.986;11.618;2023-04-25T08:53:40;12.40;96.20
39925;DHT22;25592;49.986;11.618;2023-04-25T08:56:27;12.20;95.70
39925;DHT22;25592;49.986;11.618;2023-04-25T08:59:15;12.00;95.30
39925;DHT22;25592;49.986;11.618;2023-04-25T09:02:00;11.90;96.00
39925;DHT22;25592;49.986;11.618;2023-04-25T09:04:46;11.70;95.30
39925;DHT22;25592;49.986;11.618;2023-04-25T09:07:32;11.80;95.00
39925;DHT22;25592;49.986;11.618;2023-04-25T09:10:17;11.70;94.40
39925;DHT22;25592;49.986;11.618;2023-04-25T09:13:04;11.60;94.10
39925;DHT22;25592;49.986;11.618;2023-04-25T09:15:55;11.60;94.50
39925;DHT22;25592;49.986;11.618;2023-04-25T09:18:41;11.60;94.60
39925;DHT22;25592;49.986;11.618;2023-04-25T09:21:34;11.80;94.00
39925;DHT22;25592;49.986;11.618;2023-04-25T09:24:39;11.80;93.50
39925;DHT22;25592;49.986;11.618;2023-04-25T09:27:25;11.90;93.90
39925;DHT22;25592;49.986;11.618;2023-04-25T09:30:15;11.90;93.80
39925;DHT22;25592;49.986;11.618;2023-04-25T09:33:08;11.90;93.40
39925;DHT22;25592;49.986;11.618;2023-04-25T09:35:53;12.00;93.90
39925;DHT22;25592;49.986;11.618;2023-04-25T09:38:45;11.90;94.20
39925;DHT22;25592;49.986;11.618;2023-04-25T09:41:30;11.90;93.80
39925;DHT22;25592;49.986;11.618;2023-04-25T09:44:23;12.00;93.50
39925;DHT22;25592;49.986;11.618;2023-04-25T09:47:11;12.00;93.20
39925;DHT22;25592;49.986;11.618;2023-04-25T09:49:57;12.40;93.30
39925;DHT22;25592;49.986;11.618;2023-04-25T09:52:43;12.80;93.30
39925;DHT22;25592;49.986;11.618;2023-04-25T09:55:28;13.20;93.80
39925;DHT22;25592;49.986;11.618;2023-04-25T09:58:14;13.70;95.20
39925;DHT22;25592;49.986;11.618;2023-04-25T10:01:01;14.00;91.90
39925;DHT22;25592;49.986;11.618;2023-04-25T10:03:49;14.20;91.40
39925;DHT22;25592;49.986;11.618;2023-04-25T10:06:36;14.30;90.50
39925;DHT22;25592;49.986;11.618;2023-04-25T10:09:25;13.90;90.60
39925;DHT22;25592;49.986;11.618;2023-04-25T10:12:11;13.80;91.30
39925;DHT22;25592;49.986;11.618;2023-04-25T10:14:57;13.50;90.60
39925;DHT22;25592;49.986;11.618;2023-04-25T10:17:43;13.40;90.00
39925;DHT22;25592;49.986;11.618;2023-04-25T10:20:29;13.70;89.80
39925;DHT22;25592;49.986;11.618;2023-04-25T10:23:15;14.00;89.60
39925;DHT22;25592;49.986;11.618;2023-04-25T10:26:02;14.00;89.50
39925;DHT22;25592;49.986;11.618;2023-04-25T10:29:03;14.00;88.40
39925;DHT22;25592;49.986;11.618;2023-04-25T10:31:48;13.70;86.70
39925;DHT22;25592;49.986;11.618;2023-04-25T10:34:42;13.80;85.80
39925;DHT22;25592;49.986;11.618;2023-04-25T10:37:27;14.10;86.70
39925;DHT22;25592;49.986;11.618;2023-04-25T10:40:13;14.10;85.80
39925;DHT22;25592;49.986;11.618;2023-04-25T10:46:27;13.80;86.50
39925;DHT22;25592;49.986;11.618;2023-04-25T10:52:15;15.00;83.60
39925;DHT22;25592;49.986;11.618;2023-04-25T10:55:03;15.20;81.80
39925;DHT22;25592;49.986;11.618;2023-04-25T10:57:48;14.70;80.80
39925;DHT22;25592;49.986;11.618;2023-04-25T11:00:35;14.70;83.50
39925;DHT22;25592;49.986;11.618;2023-04-25T11:03:42;15.00;86.30
39925;DHT22;25592;49.986;11.618;2023-04-25T11:09:40;15.90;84.00
39925;DHT22;25592;49.986;11.618;2023-04-25T11:12:26;15.70;82.00
39925;DHT22;25592;49.986;11.618;2023-04-25T11:15:11;15.60;80.50
39925;DHT22;25592;49.986;11.618;2023-04-25T11:17:56;15.90;82.20
39925;DHT22;25592;49.986;11.618;2023-04-25T11:20:43;16.30;82.20
39925;DHT22;25592;49.986;11.618;2023-04-25T11:23:30;16.00;80.40
39925;DHT22;25592;49.986;11.618;2023-04-25T11:26:15;15.90;77.70
39925;DHT22;25592;49.986;11.618;2023-04-25T11:29:01;15.40;78.50
39925;DHT22;25592;49.986;11.618;2023-04-25T11:31:46;15.60;78.10
39925;DHT22;25592;49.986;11.618;2023-04-25T11:34:32;15.80;78.10
39925;DHT22;25592;49.986;11.618;2023-04-25T11:37:18;16.10;78.60
39925;DHT22;25592;49.986;11.618;2023-04-25T11:40:04;16.50;77.50
39925;DHT22;25592;49.986;11.618;2023-04-25T11:42:51;16.70;74.50
39925;DHT22;25592;49.986;11.618;2023-04-25T11:45:39;17.10;76.10
39925;DHT22;25592;49.986;11.618;2023-04-25T11:48:25;17.20;74.90
39925;DHT22;25592;49.986;11.618;2023-04-25T11:51:11;17.00;75.30
39925;DHT22;25592;49.986;11.618;2023-04-25T11:53:56;16.70;76.30
39925;DHT22;25592;49.986;11.618;2023-04-25T11:56:46;16.30;74.20
39925;DHT22;25592;49.986;11.618;2023-04-25T11:59:31;16.30;74.90
39925;DHT22;25592;49.986;11.618;2023-04-25T12:02:26;16.00;74.00
39925;DHT22;25592;49.986;11.618;2023-04-25T12:05:13;15.50;76.60
39925;DHT22;25592;49.986;11.618;2023-04-25T12:08:16;15.30;76.70
39925;DHT22;25592;49.986;11.618;2023-04-25T12:11:02;15.20;76.90
39925;DHT22;25592;49.986;11.618;2023-04-25T12:13:51;15.40;77.00
39925;DHT22;25592;49.986;11.618;2023-04-25T12:16:43;15.40;76.70
39925;DHT22;25592;49.986;11.618;2023-04-25T12:19:33;15.10;77.20
39925;DHT22;25592;49.986;11.618;2023-04-25T12:22:21;15.60;77.60
39925;DHT22;25592;49.986;11.618;2023-04-25T12:25:07;15.50;75.20
39925;DHT22;25592;49.986;11.618;2023-04-25T12:27:52;15.70;77.90
39925;DHT22;25592;49.986;11.618;2023-04-25T12:33:48;16.80;76.10
39925;DHT22;25592;49.986;11.618;2023-04-25T12:36:33;17.20;75.90
39925;DHT22;25592;49.986;11.618;2023-04-25T12:39:21;17.60;74.10
39925;DHT22;25592;49.986;11.618;2023-04-25T12:42:10;17.40;73.20
39925;DHT22;25592;49.986;11.618;2023-04-25T12:44:58;17.30;71.70
39925;DHT22;25592;49.986;11.618;2023-04-25T12:47:43;17.30;74.90
39925;DHT22;25592;49.986;11.618;2023-04-25T12:50:28;17.30;73.90
39925;DHT22;25592;49.986;11.618;2023-04-25T12:53:14;17.10;73.10
39925;DHT22;25592;49.986;11.618;2023-04-25T12:55:59;16.90;73.40
39925;DHT22;25592;49.986;11.618;2023-04-25T12:58:45;17.20;73.90
39925;DHT22;25592;49.986;11.618;2023-04-25T13:01:31;17.80;73.30
39925;DHT22;25592;49.986;11.618;2023-04-25T13:04:20;17.50;72.80
39925;DHT22;25592;49.986;11.618;2023-04-25T13:07:07;16.60;72.40
39925;DHT22;25592;49.986;11.618;2023-04-25T13:09:52;16.30;73.60
39925;DHT22;25592;49.986;11.618;2023-04-25T13:12:37;16.40;74.70
39925;DHT22;25592;49.986;11.618;2023-04-25T13:15:23;16.90;74.80
39925;DHT22;25592;49.986;11.618;2023-04-25T13:18:08;17.00;73.70
39925;DHT22;25592;49.986;11.618;2023-04-25T13:20:54;17.30;74.10
39925;DHT22;25592;49.986;11.618;2023-04-25T13:23:40;17.30;72.40
39925;DHT22;25592;49.986;11.618;2023-04-25T13:26:27;17.30;71.60
39925;DHT22;25592;49.986;11.618;2023-04-25T13:29:12;16.40;72.60
39925;DHT22;25592;49.986;11.618;2023-04-25T13:31:58;16.00;71.80
39925;DHT22;25592;49.986;11.618;2023-04-25T13:34:43;16.00;73.50
39925;DHT22;25592;49.986;11.618;2023-04-25T13:37:29;16.00;72.60
39925;DHT22;25592;49.986;11.618;2023-04-25T13:40:15;16.10;74.60
39925;DHT22;25592;49.986;11.618;2023-04-25T13:43:01;16.80;76.40
39925;DHT22;25592;49.986;11.618;2023-04-25T13:45:48;17.30;76.50
39925;DHT22;25592;49.986;11.618;2023-04-25T13:48:33;17.20;77.00
39925;DHT22;25592;49.986;11.618;2023-04-25T13:51:19;17.20;75.80
39925;DHT22;25592;49.986;11.618;2023-04-25T13:54:05;17.10;75.70
39925;DHT22;25592;49.986;11.618;2023-04-25T13:56:50;16.90;75.60
39925;DHT22;25592;49.986;11.618;2023-04-25T13:59:37;16.70;75.90
39925;DHT22;25592;49.986;11.618;2023-04-25T14:02:23;16.60;77.30
39925;DHT22;25592;49.986;11.618;2023-04-25T14:05:09;16.60;77.20
39925;DHT22;25592;49.986;11.618;2023-04-25T14:07:54;16.30;76.20
39925;DHT22;25592;49.986;11.618;2023-04-25T14:10:40;16.20;75.40
39925;DHT22;25592;49.986;11.618;2023-04-25T14:13:26;16.10;72.00
39925;DHT22;25592;49.986;11.618;2023-04-25T14:16:11;15.90;73.20
39925;DHT22;25592;49.986;11.618;2023-04-25T14:18:57;15.80;74.50
39925;DHT22;25592;49.986;11.618;2023-04-25T14:21:43;15.60;75.30
39925;DHT22;25592;49.986;11.618;2023-04-25T14:24:28;15.50;74.60
39925;DHT22;25592;49.986;11.618;2023-04-25T14:27:14;15.10;74.10
39925;DHT22;25592;49.986;11.618;2023-04-25T14:29:59;15.00;74.70
39925;DHT22;25592;49.986;11.618;2023-04-25T14:32:45;15.00;74.90
39925;DHT22;25592;49.986;11.618;2023-04-25T14:35:31;14.90;74.90
39925;DHT22;25592;49.986;11.618;2023-04-25T14:38:16;14.80;74.80
39925;DHT22;25592;49.986;11.618;2023-04-25T14:41:02;14.40;75.80
39925;DHT22;25592;49.986;11.618;2023-04-25T14:43:47;14.20;76.50
39925;DHT22;25592;49.986;11.618;2023-04-25T14:46:33;14.20;76.80
39925;DHT22;25592;49.986;11.618;2023-04-25T14:49:19;13.90;76.60
39925;DHT22;25592;49.986;11.618;2023-04-25T14:52:04;14.00;78.20
39925;DHT22;25592;49.986;11.618;2023-04-25T14:54:50;14.10;77.40
39925;DHT22;25592;49.986;11.618;2023-04-25T14:57:35;14.00;77.30
39925;DHT22;25592;49.986;11.618;2023-04-25T15:00:21;14.00;77.30
39925;DHT22;25592;49.986;11.618;2023-04-25T15:03:06;13.50;77.50
39925;DHT22;25592;49.986;11.618;2023-04-25T15:05:54;13.40;78.70
39925;DHT22;25592;49.986;11.618;2023-04-25T15:08:40;13.50;79.00
39925;DHT22;25592;49.986;11.618;2023-04-25T15:11:25;13.50;78.90
39925;DHT22;25592;49.986;11.618;2023-04-25T15:14:11;13.60;79.00
39925;DHT22;25592;49.986;11.618;2023-04-25T15:16:56;14.00;79.00
39925;DHT22;25592;49.986;11.618;2023-04-25T15:19:42;14.20;77.30
39925;DHT22;25592;49.986;11.618;2023-04-25T15:22:27;14.40;76.40
39925;DHT22;25592;49.986;11.618;2023-04-25T15:25:13;14.50;76.50
39925;DHT22;25592;49.986;11.618;2023-04-25T15:27:58;14.70;75.70
39925;DHT22;25592;49.986;11.618;2023-04-25T15:30:44;14.80;74.60
39925;DHT22;25592;49.986;11.618;2023-04-25T15:33:30;14.60;73.80
39925;DHT22;25592;49.986;11.618;2023-04-25T15:36:16;14.60;75.20
39925;DHT22;25592;49.986;11.618;2023-04-25T15:39:03;14.60;75.30
39925;DHT22;25592;49.986;11.618;2023-04-25T15:41:49;14.70;74.00
39925;DHT22;25592;49.986;11.618;2023-04-25T15:44:34;15.00;74.60
39925;DHT22;25592;49.986;11.618;2023-04-25T15:47:19;15.00;73.60
39925;DHT22;25592;49.986;11.618;2023-04-25T15:50:07;14.80;73.00
39925;DHT22;25592;49.986;11.618;2023-04-25T15:52:53;14.40;73.20
39925;DHT22;25592;49.986;11.618;2023-04-25T15:55:39;14.30;74.50
39925;DHT22;25592;49.986;11.618;2023-04-25T15:58:24;14.20;76.50
39925;DHT22;25592;49.986;11.618;2023-04-25T16:01:11;14.30;78.70
39925;DHT22;25592;49.986;11.618;2023-04-25T16:03:57;14.20;75.40
39925;DHT22;25592;49.986;11.618;2023-04-25T16:06:42;13.90;75.30
39925;DHT22;25592;49.986;11.618;2023-04-25T16:09:29;13.80;76.20
39925;DHT22;25592;49.986;11.618;2023-04-25T16:12:16;13.60;76.40
39925;DHT22;25592;49.986;11.618;2023-04-25T16:15:03;13.40;77.20
39925;DHT22;25592;49.986;11.618;2023-04-25T16:17:48;13.50;77.50
39925;DHT22;25592;49.986;11.618;2023-04-25T16:20:33;13.60;77.40
39925;DHT22;25592;49.986;11.618;2023-04-25T16:23:19;13.60;76.60
39925;DHT22;25592;49.986;11.618;2023-04-25T16:26:04;13.70;75.90
39925;DHT22;25592;49.986;11.618;2023-04-25T16:28:50;13.60;75.10
39925;DHT22;25592;49.986;11.618;2023-04-25T16:31:35;13.50;75.00
39925;DHT22;25592;49.986;11.618;2023-04-25T16:34:21;13.50;74.30
39925;DHT22;25592;49.986;11.618;2023-04-25T16:37:07;13.40;73.00
39925;DHT22;25592;49.986;11.618;2023-04-25T16:39:59;13.30;74.50
39925;DHT22;25592;49.986;11.618;2023-04-25T16:43:12;13.30;74.50
39925;DHT22;25592;49.986;11.618;2023-04-25T16:45:58;13.40;74.30
39925;DHT22;25592;49.986;11.618;2023-04-25T16:48:46;13.30;74.50
39925;DHT22;25592;49.986;11.618;2023-04-25T16:51:35;13.20;74.30
39925;DHT22;25592;49.986;11.618;2023-04-25T16:54:20;12.90;73.80
39925;DHT22;25592;49.986;11.618;2023-04-25T16:57:06;12.80;73.50
39925;DHT22;25592;49.986;11.618;2023-04-25T16:59:54;12.60;73.30
39925;DHT22;25592;49.986;11.618;2023-04-25T17:02:40;12.60;74.30
39925;DHT22;25592;49.986;11.618;2023-04-25T17:05:26;12.50;74.30
39925;DHT22;25592;49.986;11.618;2023-04-25T17:08:11;12.50;74.10
39925;DHT22;25592;49.986;11.618;2023-04-25T17:10:57;12.30;73.90
39925;DHT22;25592;49.986;11.618;2023-04-25T17:13:44;12.30;74.80
39925;DHT22;25592;49.986;11.618;2023-04-25T17:16:36;12.30;74.00
39925;DHT22;25592;49.986;11.618;2023-04-25T17:19:22;12.20;73.30
39925;DHT22;25592;49.986;11.618;2023-04-25T17:22:08;12.10;73.80
39925;DHT22;25592;49.986;11.618;2023-04-25T17:24:53;12.20;72.90
39925;DHT22;25592;49.986;11.618;2023-04-25T17:27:38;12.20;71.80
39925;DHT22;25592;49.986;11.618;2023-04-25T17:30:24;12.10;71.40
39925;DHT22;25592;49.986;11.618;2023-04-25T17:33:10;12.00;71.50